Time;durP1;ratioP1;P1;durP2;ratioP2;P2;SDS_P1;SDS_P2;PMS_P1;PMS_P2;Temp;Humidity;BMP_temperature;BMP_pressure;BME280_temperature;BME280_humidity;BME280_pressure;Samples;Min_cycle;Max_cycle;Signal;HPM_P1;HPM_P2
2021/08/04 00:01:33;;;;;;;4.63;2.70;;;;;;;14.20;85.56;96196.97;5033230;28;20056;-73
2021/08/04 00:04:00;;;;;;;5.07;2.90;;;;;;;14.23;86.06;96190.00;5029373;28;20412;-73
2021/08/04 00:06:26;;;;;;;4.10;2.40;;;;;;;14.23;85.35;96199.00;5032505;28;20060;-74
2021/08/04 00:08:53;;;;;;;7.97;2.90;;;;;;;14.15;84.88;96189.00;5033074;28;20046;-73
2021/08/04 00:11:19;;;;;;;6.70;2.50;;;;;;;14.13;85.36;96191.25;5032319;28;20068;-73
2021/08/04 00:13:46;;;;;;;5.07;3.03;;;;;;;14.17;85.81;96192.19;5033000;28;20057;-73
2021/08/04 00:16:12;;;;;;;3.65;2.58;;;;;;;14.10;85.52;96192.75;5032731;28;20056;-73
2021/08/04 00:18:40;;;;;;;4.72;2.42;;;;;;;14.03;85.51;96197.22;5032931;28;20049;-75
2021/08/04 00:21:07;;;;;;;4.63;2.30;;;;;;;13.99;85.58;96196.28;5032491;28;20515;-73
2021/08/04 00:23:33;;;;;;;4.47;2.50;;;;;;;13.98;85.79;96197.44;5033048;28;20049;-76
2021/08/04 00:26:00;;;;;;;4.32;2.47;;;;;;;13.99;85.89;96202.59;5032814;28;20053;-74
2021/08/04 00:28:26;;;;;;;5.30;2.60;;;;;;;14.03;86.24;96191.72;5032281;28;20061;-74
2021/08/04 00:30:53;;;;;;;6.68;3.05;;;;;;;14.03;86.16;96194.47;5032722;28;20504;-74
2021/08/04 00:33:19;;;;;;;6.68;2.72;;;;;;;14.04;86.30;96201.53;5032131;28;20496;-74
2021/08/04 00:35:47;;;;;;;6.40;3.08;;;;;;;14.08;86.27;96194.25;5032585;28;20049;-74
2021/08/04 00:38:15;;;;;;;5.88;3.17;;;;;;;14.15;86.57;96191.72;5031828;28;20045;-74
2021/08/04 00:40:43;;;;;;;6.47;3.17;;;;;;;14.22;87.12;96180.19;5032482;28;20049;-74
2021/08/04 00:43:10;;;;;;;4.82;2.90;;;;;;;14.17;85.85;96183.97;5031971;28;20049;-73
2021/08/04 00:45:37;;;;;;;9.10;2.92;;;;;;;14.19;85.57;96189.88;5032329;28;20053;-74
2021/08/04 00:48:04;;;;;;;6.32;3.03;;;;;;;14.16;85.51;96179.63;5031845;28;20416;-74
2021/08/04 00:50:32;;;;;;;4.35;2.58;;;;;;;14.13;85.87;96185.00;5032272;28;20046;-74
2021/08/04 00:53:00;;;;;;;6.38;2.88;;;;;;;14.19;86.47;96184.41;5031974;28;20046;-74
2021/08/04 00:55:27;;;;;;;6.80;3.13;;;;;;;14.19;86.83;96189.09;5031867;28;20049;-74
2021/08/04 00:57:54;;;;;;;6.47;3.72;;;;;;;14.25;87.48;96183.03;5032044;28;20401;-74
2021/08/04 01:00:20;;;;;;;8.52;3.03;;;;;;;14.26;86.37;96183.84;5031694;28;20049;-74
2021/08/04 01:02:52;;;;;;;8.40;3.30;;;;;;;14.23;86.11;96179.84;5040071;28;20061;-74
2021/08/04 01:05:23;;;;;;;8.30;3.33;;;;;;;14.19;86.32;96181.66;5052756;28;20095;-74
2021/08/04 01:07:56;;;;;;;8.43;2.90;;;;;;;14.20;86.24;96179.72;5052245;28;20045;-74
2021/08/04 01:10:28;;;;;;;6.18;2.90;;;;;;;14.10;86.59;96186.50;5051530;28;20135;-74
2021/08/04 01:12:59;;;;;;;5.45;3.05;;;;;;;14.03;86.60;96186.25;5051801;28;20049;-73
2021/08/04 01:15:30;;;;;;;8.35;3.30;;;;;;;14.02;87.07;96182.72;5051435;28;20048;-74
2021/08/04 01:17:59;;;;;;;5.05;3.20;;;;;;;14.04;87.50;96196.88;5051724;28;20052;-74
2021/08/04 01:20:28;;;;;;;7.13;2.95;;;;;;;13.99;87.85;96201.75;5051316;28;20052;-74
2021/08/04 01:23:09;;;;;;;7.97;3.30;;;;;;;13.98;88.01;96200.19;5033334;28;20042;-74
2021/08/04 01:25:43;;;;;;;9.07;3.17;;;;;;;13.98;88.40;96206.44;5031385;28;20049;-74
2021/08/04 01:28:24;;;;;;;9.35;3.60;;;;;;;13.99;88.48;96208.06;5031334;28;20056;-73
2021/08/04 01:30:53;;;;;;;6.22;3.25;;;;;;;14.05;88.68;96200.41;5031450;28;20102;-74
2021/08/04 01:33:20;;;;;;;7.53;3.05;;;;;;;14.12;88.58;96211.56;5039833;28;20098;-74
2021/08/04 01:35:48;;;;;;;5.90;2.88;;;;;;;14.06;88.37;96207.47;5051256;28;20060;-74
2021/08/04 01:38:17;;;;;;;9.55;3.30;;;;;;;14.07;88.74;96209.88;5050814;28;20048;-74
2021/08/04 01:40:47;;;;;;;6.75;3.17;;;;;;;14.08;88.68;96199.72;5051151;28;20057;-75
2021/08/04 01:43:17;;;;;;;8.05;3.00;;;;;;;14.12;88.92;96202.56;5050758;28;20049;-74
2021/08/04 01:45:46;;;;;;;7.75;2.78;;;;;;;14.11;88.62;96199.03;5051324;28;20503;-74
2021/08/04 01:48:14;;;;;;;6.75;3.03;;;;;;;14.05;88.37;96198.47;5050860;28;20132;-74
2021/08/04 01:50:42;;;;;;;5.40;3.08;;;;;;;14.09;88.59;96195.81;5051187;28;20044;-73
2021/08/04 01:53:08;;;;;;;7.47;3.08;;;;;;;14.16;89.06;96196.06;5010946;28;20401;-73
2021/08/04 01:55:35;;;;;;;5.57;3.28;;;;;;;14.16;88.93;96189.78;5011525;28;20516;-74
2021/08/04 01:58:02;;;;;;;6.68;3.35;;;;;;;14.22;89.26;96186.47;5011213;28;20053;-73
2021/08/04 02:00:29;;;;;;;5.32;3.10;;;;;;;14.29;89.04;96188.59;5011532;28;20057;-73
2021/08/04 02:02:56;;;;;;;5.18;3.25;;;;;;;14.30;89.21;96185.53;5018280;28;20409;-74
2021/08/04 02:05:23;;;;;;;5.13;3.25;;;;;;;14.30;89.58;96185.53;5030594;28;20041;-73
2021/08/04 02:08:00;;;;;;;4.25;2.90;;;;;;;14.34;89.63;96186.44;5031261;28;20052;-76
2021/08/04 02:10:33;;;;;;;4.53;3.05;;;;;;;14.40;89.11;96177.97;5030890;28;20049;-75
2021/08/04 02:13:08;;;;;;;4.88;2.70;;;;;;;14.43;88.78;96177.28;5031025;28;20049;-75
2021/08/04 02:15:40;;;;;;;5.57;3.17;;;;;;;14.46;88.75;96166.44;5030990;28;20045;-76
2021/08/04 02:18:15;;;;;;;6.35;3.15;;;;;;;14.50;88.82;96175.56;5030287;28;20053;-74
2021/08/04 02:20:45;;;;;;;4.63;3.17;;;;;;;14.49;88.30;96175.94;5031196;28;20052;-75
2021/08/04 02:23:15;;;;;;;4.65;3.38;;;;;;;14.38;87.05;96174.78;5010797;28;20476;-75
2021/08/04 02:25:47;;;;;;;5.03;3.47;;;;;;;14.39;87.54;96170.91;5011149;28;20057;-76
2021/08/04 02:28:20;;;;;;;4.53;2.90;;;;;;;14.49;88.55;96165.75;5010949;28;20046;-76
2021/08/04 02:30:47;;;;;;;;;;;;;;;14.54;88.59;96167.47;5011670;28;20050;-76
2021/08/04 02:33:15;;;;;;;4.97;3.33;;;;;;;14.49;88.88;96165.75;5019937;28;19928;-74
2021/08/04 02:35:42;;;;;;;5.85;3.38;;;;;;;14.52;89.19;96164.28;5030900;28;20050;-75
2021/08/04 02:38:08;;;;;;;4.97;3.20;;;;;;;14.55;89.49;96174.53;5030251;28;20386;-75
2021/08/04 02:40:35;;;;;;;5.60;3.17;;;;;;;14.57;89.10;96167.56;5030677;28;20045;-75
2021/08/04 02:43:04;;;;;;;7.57;3.33;;;;;;;14.59;88.38;96169.94;5030478;28;20041;-75
2021/08/04 02:45:31;;;;;;;7.20;3.42;;;;;;;14.60;88.57;96171.53;5030826;28;20053;-75
2021/08/04 02:47:57;;;;;;;6.72;3.55;;;;;;;14.62;88.12;96172.00;5030635;28;20054;-76
2021/08/04 02:50:26;;;;;;;5.45;3.20;;;;;;;14.60;87.88;96160.59;5030002;28;20057;-74
2021/08/04 02:52:53;;;;;;;7.43;3.40;;;;;;;14.53;87.58;96165.88;5030260;28;20500;-75
2021/08/04 02:55:19;;;;;;;5.38;3.00;;;;;;;14.49;87.55;96164.97;5030200;28;20052;-75
2021/08/04 02:57:46;;;;;;;5.13;3.03;;;;;;;14.42;87.88;96170.22;5030678;28;20049;-75
2021/08/04 03:00:13;;;;;;;6.55;3.10;;;;;;;14.42;88.20;96172.97;5030230;28;20057;-75
2021/08/04 03:02:40;;;;;;;5.20;3.72;;;;;;;14.41;88.73;96163.94;5033779;28;20045;-75
2021/08/04 03:05:07;;;;;;;5.20;3.38;;;;;;;14.44;88.70;96168.72;5050140;28;20041;-76
2021/08/04 03:07:35;;;;;;;5.97;4.45;;;;;;;14.50;89.09;96156.38;5050322;28;20053;-76
2021/08/04 03:10:02;;;;;;;7.50;3.60;;;;;;;14.57;89.40;96172.25;5050019;28;20041;-76
2021/08/04 03:12:28;;;;;;;5.25;3.50;;;;;;;14.54;89.44;96161.97;5050325;28;20444;-76
2021/08/04 03:14:55;;;;;;;6.50;3.53;;;;;;;14.55;89.57;96163.56;5050339;28;20061;-75
2021/08/04 03:17:21;;;;;;;7.68;3.70;;;;;;;14.57;89.77;96166.78;5049930;28;20045;-76
2021/08/04 03:19:48;;;;;;;6.78;3.80;;;;;;;14.57;89.75;96158.56;5050353;28;20060;-76
2021/08/04 03:22:14;;;;;;;7.20;3.90;;;;;;;14.53;89.48;96157.66;5037085;28;20412;-76
2021/08/04 03:24:42;;;;;;;5.93;3.40;;;;;;;14.54;89.45;96162.78;5030435;28;20061;-75
2021/08/04 03:27:08;;;;;;;8.10;4.07;;;;;;;14.52;89.69;96161.53;5029961;28;20417;-75
2021/08/04 03:29:35;;;;;;;8.15;4.45;;;;;;;14.53;89.75;96160.38;5031098;28;20045;-76
2021/08/04 03:32:02;;;;;;;6.90;4.15;;;;;;;14.56;89.78;96165.97;5033372;28;20438;-75
2021/08/04 03:34:29;;;;;;;7.03;4.25;;;;;;;14.59;89.66;96165.28;5033831;28;20144;-75
2021/08/04 03:36:55;;;;;;;6.18;4.10;;;;;;;14.61;89.59;96168.44;5033806;28;20061;-75
2021/08/04 03:39:22;;;;;;;7.13;3.47;;;;;;;14.57;89.49;96153.06;5033188;28;20484;-76
2021/08/04 03:41:49;;;;;;;7.82;3.50;;;;;;;14.60;89.38;96155.09;5033496;28;20057;-76
2021/08/04 03:44:16;;;;;;;6.53;3.65;;;;;;;14.62;88.93;96161.06;5033228;28;20054;-76
2021/08/04 03:46:46;;;;;;;5.50;3.70;;;;;;;14.63;88.92;96159.91;5033497;28;20503;-76
2021/08/04 03:49:13;;;;;;;8.57;4.00;;;;;;;14.61;89.02;96167.66;5033098;28;20046;-76
2021/08/04 03:51:39;;;;;;;5.55;3.50;;;;;;;14.64;89.01;96157.94;5033144;28;20049;-75
2021/08/04 03:54:06;;;;;;;7.60;3.95;;;;;;;14.67;89.09;96159.97;5033038;28;20046;-75
2021/08/04 03:56:32;;;;;;;6.20;4.00;;;;;;;14.59;88.65;96169.94;5033551;28;20042;-75
2021/08/04 03:59:00;;;;;;;7.70;4.18;;;;;;;14.57;88.72;96172.25;5033489;28;20133;-73
2021/08/04 04:01:27;;;;;;;8.52;4.13;;;;;;;14.50;88.71;96166.56;5033034;28;20432;-74
2021/08/04 04:03:53;;;;;;;9.27;3.70;;;;;;;14.49;89.31;96171.25;5047007;28;20056;-73
2021/08/04 04:06:20;;;;;;;7.20;4.30;;;;;;;14.52;89.67;96176.03;5052553;28;20049;-74
2021/08/04 04:08:46;;;;;;;7.32;4.05;;;;;;;14.56;89.62;96165.97;5053053;28;20416;-73
2021/08/04 04:11:13;;;;;;;7.30;3.50;;;;;;;14.55;89.23;96163.56;5052676;28;20049;-75
2021/08/04 04:13:39;;;;;;;10.77;4.55;;;;;;;14.59;89.48;96164.47;5052850;28;20067;-72
2021/08/04 04:16:07;;;;;;;7.60;4.03;;;;;;;14.62;89.35;96152.84;5052706;28;20123;-73
2021/08/04 04:18:33;;;;;;;9.63;3.80;;;;;;;14.64;89.02;96155.22;5052906;28;20049;-73
2021/08/04 04:21:00;;;;;;;7.93;4.20;;;;;;;14.61;88.34;96152.00;5050413;28;20037;-74
2021/08/04 04:23:27;;;;;;;7.90;3.72;;;;;;;14.67;88.36;96149.84;4999155;28;20049;-73
2021/08/04 04:25:53;;;;;;;7.90;4.30;;;;;;;14.73;88.42;96153.91;5032713;28;20045;-73
2021/08/04 04:28:20;;;;;;;7.13;4.30;;;;;;;14.82;88.37;96142.78;5032300;28;20045;-73
2021/08/04 04:30:46;;;;;;;7.15;4.05;;;;;;;14.90;88.54;96157.50;5032700;28;20046;-73
2021/08/04 04:33:14;;;;;;;6.28;3.95;;;;;;;14.93;88.33;96154.03;5032123;28;20058;-73
2021/08/04 04:35:40;;;;;;;7.10;4.03;;;;;;;14.98;87.87;96159.25;5032628;28;20076;-75
2021/08/04 04:38:07;;;;;;;9.10;3.88;;;;;;;14.96;87.66;96161.56;5032078;28;20053;-73
2021/08/04 04:40:33;;;;;;;10.00;3.67;;;;;;;14.98;86.82;96164.75;5032252;28;20053;-73
2021/08/04 04:43:00;;;;;;;7.40;3.85;;;;;;;15.00;86.51;96170.69;5032640;28;20054;-73
2021/08/04 04:45:26;;;;;;;8.80;4.05;;;;;;;15.06;86.40;96161.84;5032274;28;20056;-73
2021/08/04 04:47:53;;;;;;;7.47;3.85;;;;;;;15.14;86.34;96163.66;5032364;28;20049;-73
2021/08/04 04:50:21;;;;;;;6.68;4.28;;;;;;;15.24;86.44;96167.00;5031841;28;20049;-75
2021/08/04 04:52:47;;;;;;;6.85;3.97;;;;;;;15.25;86.39;96163.94;5032155;28;20051;-74
2021/08/04 04:55:14;;;;;;;8.45;3.63;;;;;;;15.28;86.10;96165.94;5031966;28;20045;-72
2021/08/04 04:57:41;;;;;;;7.45;4.10;;;;;;;15.31;86.17;96167.19;5032482;28;20143;-75
2021/08/04 05:00:09;;;;;;;14.32;7.57;;;;;;;15.30;85.43;96166.41;5045897;28;20041;-73
2021/08/04 05:02:37;;;;;;;7.78;5.40;;;;;;;15.30;85.44;96165.63;5050662;28;20447;-73
2021/08/04 05:05:04;;;;;;;8.18;4.90;;;;;;;15.36;85.59;96169.69;5051625;28;20052;-73
2021/08/04 05:07:32;;;;;;;14.57;5.28;;;;;;;15.40;84.86;96176.88;5051915;28;20522;-73
2021/08/04 05:09:58;;;;;;;7.97;4.00;;;;;;;15.38;84.83;96173.66;5051913;28;20053;-72
2021/08/04 05:12:25;;;;;;;6.38;4.28;;;;;;;15.40;85.16;96179.59;5051532;28;20044;-73
2021/08/04 05:14:52;;;;;;;5.47;3.60;;;;;;;15.44;85.23;96184.38;5051851;28;20052;-73
2021/08/04 05:17:18;;;;;;;6.90;3.83;;;;;;;15.46;85.14;96179.34;5051196;28;20135;-72
2021/08/04 05:19:44;;;;;;;7.47;3.70;;;;;;;15.47;84.67;96178.19;5051458;28;20053;-73
2021/08/04 05:22:11;;;;;;;5.03;3.60;;;;;;;15.48;84.84;96182.53;5039044;28;20497;-72
2021/08/04 05:24:39;;;;;;;11.25;4.00;;;;;;;15.51;84.70;96176.34;5031871;28;20045;-72
2021/08/04 05:27:06;;;;;;;7.78;3.75;;;;;;;15.60;84.59;96179.69;5031190;28;20053;-72
2021/08/04 05:29:32;;;;;;;4.72;2.95;;;;;;;15.58;84.15;96180.03;5031674;28;20049;-74
2021/08/04 05:31:58;;;;;;;8.10;3.40;;;;;;;15.59;83.38;96178.09;5031580;28;20056;-73
2021/08/04 05:34:25;;;;;;;9.07;3.80;;;;;;;15.66;83.33;96172.81;5048764;28;20392;-71
2021/08/04 05:36:51;;;;;;;6.63;3.63;;;;;;;15.72;83.20;96179.63;5051231;28;20056;-71
2021/08/04 05:39:18;;;;;;;5.80;3.50;;;;;;;15.77;83.75;96182.13;5050990;28;20045;-71
2021/08/04 05:41:46;;;;;;;8.90;3.38;;;;;;;15.83;83.00;96183.44;5050321;28;20045;-70
2021/08/04 05:44:12;;;;;;;8.77;3.30;;;;;;;15.87;82.20;96176.09;5050995;28;20049;-71
2021/08/04 05:46:39;;;;;;;5.65;3.28;;;;;;;15.78;80.83;96180.16;5051331;28;20060;-71
2021/08/04 05:49:05;;;;;;;8.10;3.63;;;;;;;15.74;81.46;96179.28;5050647;28;20053;-71
2021/08/04 05:51:32;;;;;;;5.82;3.30;;;;;;;15.73;82.10;96177.69;5044416;28;20049;-71
2021/08/04 05:53:58;;;;;;;5.68;3.25;;;;;;;15.73;82.22;96178.47;5011178;28;20041;-70
2021/08/04 05:56:25;;;;;;;6.00;2.90;;;;;;;15.75;81.44;96181.66;5011309;28;20045;-70
2021/08/04 05:58:52;;;;;;;7.82;3.08;;;;;;;15.79;81.55;96176.25;5011646;28;20046;-70
2021/08/04 06:01:19;;;;;;;4.50;2.67;;;;;;;15.78;80.49;96180.94;5011122;28;20050;-71
2021/08/04 06:03:45;;;;;;;4.78;2.80;;;;;;;15.78;80.69;96175.47;5023704;28;20045;-70
2021/08/04 06:06:12;;;;;;;5.07;2.65;;;;;;;15.83;81.32;96172.44;5030685;28;20046;-75
2021/08/04 06:08:38;;;;;;;6.60;2.83;;;;;;;15.83;80.96;96172.44;5031042;28;20057;-75
2021/08/04 06:11:05;;;;;;;4.88;3.00;;;;;;;15.87;79.91;96175.28;5030160;28;20046;-75
2021/08/04 06:13:31;;;;;;;4.80;3.22;;;;;;;15.90;80.56;96175.34;5030988;28;20049;-75
2021/08/04 06:16:00;;;;;;;5.40;2.20;;;;;;;15.86;78.18;96171.72;5030913;28;20418;-75
2021/08/04 06:18:26;;;;;;;5.22;2.20;;;;;;;15.93;78.55;96175.81;5030549;28;20080;-75
2021/08/04 06:20:53;;;;;;;5.03;2.80;;;;;;;15.99;80.05;96169.69;5029740;28;20046;-75
2021/08/04 06:23:19;;;;;;;3.92;2.75;;;;;;;16.05;80.74;96172.94;5011038;28;20053;-75
2021/08/04 06:25:45;;;;;;;8.90;3.20;;;;;;;16.18;81.25;96174.41;5011208;28;20049;-74
2021/08/04 06:28:12;;;;;;;5.05;2.80;;;;;;;16.20;80.23;96174.84;5010295;28;20507;-75
2021/08/04 06:30:39;;;;;;;5.75;2.55;;;;;;;16.23;80.19;96174.13;5010718;28;20060;-75
2021/08/04 06:33:06;;;;;;;7.15;2.75;;;;;;;16.25;79.86;96174.56;5017553;28;20049;-76
2021/08/04 06:35:33;;;;;;;4.65;2.65;;;;;;;16.28;80.59;96165.59;5030985;28;20496;-75
2021/08/04 06:38:00;;;;;;;5.03;2.53;;;;;;;16.34;80.18;96169.69;5030977;28;20103;-77
2021/08/04 06:40:27;;;;;;;7.05;2.50;;;;;;;16.46;79.95;96173.44;5030659;28;20050;-75
2021/08/04 06:42:54;;;;;;;4.40;2.03;;;;;;;16.49;75.99;96172.72;5030894;28;20459;-76
2021/08/04 06:45:20;;;;;;;5.45;2.40;;;;;;;16.48;76.22;96179.38;5030589;28;20049;-76
2021/08/04 06:47:47;;;;;;;3.28;2.20;;;;;;;16.52;76.26;96180.25;5030767;28;20056;-75
2021/08/04 06:50:15;;;;;;;4.55;2.17;;;;;;;16.49;76.01;96180.97;5030478;28;20053;-75
2021/08/04 06:52:41;;;;;;;5.00;1.98;;;;;;;16.50;74.87;96182.56;5023498;28;20050;-75
2021/08/04 06:55:09;;;;;;;2.88;1.55;;;;;;;16.48;74.07;96173.88;5030346;28;20046;-74
2021/08/04 06:57:35;;;;;;;3.40;2.13;;;;;;;16.42;74.70;96179.66;5030615;28;20057;-75
2021/08/04 07:00:02;;;;;;;3.47;1.95;;;;;;;16.44;75.30;96179.28;5030380;28;20052;-75
2021/08/04 07:02:28;;;;;;;4.72;1.63;;;;;;;16.50;73.76;96177.09;5032493;28;20054;-74
2021/08/04 07:04:55;;;;;;;4.53;1.70;;;;;;;16.39;73.76;96174.91;5053449;28;20049;-77
2021/08/04 07:07:22;;;;;;;4.78;2.08;;;;;;;16.41;74.87;96175.31;5053856;28;20044;-75
2021/08/04 07:09:49;;;;;;;3.13;1.58;;;;;;;16.42;74.11;96174.16;5054323;28;20060;-75
2021/08/04 07:12:16;;;;;;;2.80;1.70;;;;;;;16.37;74.41;96168.94;5053765;28;20416;-74
2021/08/04 07:14:42;;;;;;;5.00;1.75;;;;;;;16.29;72.65;96174.66;5054187;28;20056;-75
2021/08/04 07:17:09;;;;;;;3.30;1.60;;;;;;;16.26;72.30;96170.66;5053597;28;20045;-75
2021/08/04 07:19:35;;;;;;;3.22;1.75;;;;;;;16.22;73.07;96167.03;5054041;28;20064;-76
2021/08/04 07:22:02;;;;;;;4.15;1.83;;;;;;;16.30;74.85;96171.56;5042901;28;20054;-74
2021/08/04 07:24:30;;;;;;;2.60;1.45;;;;;;;16.18;73.31;96182.66;5034077;28;20049;-75
2021/08/04 07:26:57;;;;;;;2.53;1.52;;;;;;;16.15;74.02;96184.16;5034209;28;20409;-75
2021/08/04 07:29:23;;;;;;;3.50;1.65;;;;;;;16.26;73.62;96184.41;5033677;28;20041;-74
2021/08/04 07:31:50;;;;;;;3.17;1.80;;;;;;;16.37;74.42;96185.44;5033947;28;20041;-74
2021/08/04 07:34:21;;;;;;;4.10;1.52;;;;;;;16.49;73.77;96179.00;5050300;28;20060;-74
2021/08/04 07:36:48;;;;;;;3.55;1.90;;;;;;;16.55;72.41;96179.50;5053924;28;20053;-74
2021/08/04 07:39:14;;;;;;;1.58;1.38;;;;;;;16.71;73.76;96180.31;5053338;28;20045;-77
2021/08/04 07:41:42;;;;;;;23.42;3.63;;;;;;;16.81;72.42;96168.72;5053617;28;20052;-75
2021/08/04 07:44:09;;;;;;;6.75;1.70;;;;;;;16.87;71.23;96170.03;5053136;28;20417;-75
2021/08/04 07:46:35;;;;;;;3.08;1.30;;;;;;;16.92;70.25;96172.47;5053619;28;20053;-75
2021/08/04 07:49:02;;;;;;;3.17;1.42;;;;;;;16.90;70.38;96169.28;5053025;28;20045;-74
2021/08/04 07:51:28;;;;;;;4.35;1.60;;;;;;;17.04;70.74;96168.75;5047239;28;20500;-75
2021/08/04 07:53:55;;;;;;;1.80;1.30;;;;;;;17.19;69.65;96164.31;5033363;28;20038;-75
2021/08/04 07:56:23;;;;;;;3.03;1.45;;;;;;;17.37;70.04;96170.13;5033078;28;20053;-75
2021/08/04 07:58:51;;;;;;;5.85;1.85;;;;;;;17.59;69.57;96168.53;5033667;28;20415;-75
2021/08/04 08:01:18;;;;;;;1.80;1.30;;;;;;;17.65;66.48;96164.34;5033136;28;20053;-75
2021/08/04 08:03:46;;;;;;;2.85;1.50;;;;;;;17.75;67.23;96166.50;5045590;28;20048;-75
2021/08/04 08:06:12;;;;;;;2.10;1.48;;;;;;;17.94;65.37;96166.41;5052992;28;20048;-75
2021/08/04 08:08:39;;;;;;;3.55;1.63;;;;;;;17.95;63.40;96165.22;5053161;28;20056;-75
2021/08/04 08:11:05;;;;;;;2.75;1.50;;;;;;;17.88;63.89;96162.38;5052713;28;20053;-74
2021/08/04 08:13:32;;;;;;;3.97;1.50;;;;;;;17.84;66.37;96158.75;5053020;28;20049;-75
2021/08/04 08:16:00;;;;;;;13.88;2.05;;;;;;;17.88;65.70;96156.88;5052423;28;20385;-74
2021/08/04 08:18:26;;;;;;;4.03;1.80;;;;;;;18.04;67.81;96153.16;5052614;28;20504;-75
2021/08/04 08:20:52;;;;;;;2.17;1.42;;;;;;;18.08;67.55;96154.03;5051540;28;20432;-75
2021/08/04 08:23:19;;;;;;;12.45;2.00;;;;;;;17.99;66.49;96155.06;5032541;28;20046;-75
2021/08/04 08:25:46;;;;;;;4.50;1.73;;;;;;;17.81;66.21;96162.28;5033004;28;20531;-76
2021/08/04 08:28:12;;;;;;;2.65;1.70;;;;;;;17.79;66.85;96158.28;5032461;28;20103;-75
2021/08/04 08:30:39;;;;;;;4.80;1.63;;;;;;;17.78;68.00;96151.97;5032887;28;20409;-75
2021/08/04 08:33:07;;;;;;;2.25;1.48;;;;;;;17.62;67.72;96165.06;5039574;28;20053;-74
2021/08/04 08:35:34;;;;;;;10.13;1.70;;;;;;;17.58;67.72;96158.69;5052496;28;20049;-74
2021/08/04 08:38:00;;;;;;;3.00;1.40;;;;;;;17.49;67.39;96158.97;5052699;28;20518;-75
2021/08/04 08:40:27;;;;;;;4.07;1.60;;;;;;;17.50;67.63;96154.25;5052257;28;20064;-74
2021/08/04 08:42:54;;;;;;;3.40;2.00;;;;;;;17.51;66.98;96158.59;5052493;28;20041;-75
2021/08/04 08:45:22;;;;;;;2.63;1.67;;;;;;;17.42;66.69;96167.88;5052395;28;20061;-74
2021/08/04 08:47:49;;;;;;;2.40;1.60;;;;;;;17.43;67.36;96161.22;5052417;28;20050;-75
2021/08/04 08:50:21;;;;;;;2.15;1.40;;;;;;;17.45;66.66;96158.91;5051911;28;20045;-75
2021/08/04 08:52:48;;;;;;;5.20;1.70;;;;;;;17.51;67.51;96164.09;5035149;28;20049;-75
2021/08/04 08:55:15;;;;;;;2.30;1.50;;;;;;;17.47;65.80;96170.31;5031852;28;20041;-75
2021/08/04 08:57:42;;;;;;;2.13;1.42;;;;;;;17.33;65.13;96161.84;5032383;28;20073;-74
2021/08/04 09:00:10;;;;;;;2.92;1.40;;;;;;;17.35;68.73;96156.75;5031915;28;20045;-74
2021/08/04 09:02:36;;;;;;;2.33;1.45;;;;;;;17.36;68.54;96152.03;5035295;28;20404;-75
2021/08/04 09:05:05;;;;;;;3.00;1.50;;;;;;;17.36;68.33;96155.59;5051800;28;20076;-74
2021/08/04 09:07:35;;;;;;;2.38;1.52;;;;;;;17.43;69.91;96144.69;5052113;28;20052;-74
2021/08/04 09:10:04;;;;;;;3.88;1.40;;;;;;;17.47;66.66;96153.00;5051786;28;20056;-73
2021/08/04 09:12:31;;;;;;;4.25;1.45;;;;;;;17.56;67.48;96156.31;5051941;28;20416;-79
2021/08/04 09:14:57;;;;;;;10.30;1.70;;;;;;;17.60;67.74;96156.41;5052009;28;20041;-74
2021/08/04 09:17:24;;;;;;;13.55;2.38;;;;;;;17.61;66.09;96146.97;5051440;28;20389;-74
2021/08/04 09:19:52;;;;;;;4.35;1.70;;;;;;;17.62;66.02;96145.78;5051845;28;20064;-75
2021/08/04 09:22:22;;;;;;;9.93;1.80;;;;;;;17.60;66.17;96145.38;5038177;28;20045;-75
2021/08/04 09:25:08;;;;;;;21.55;2.22;;;;;;;17.65;65.77;96147.81;5031980;28;20099;-74
2021/08/04 09:27:50;;;;;;;2.17;1.35;;;;;;;17.59;65.10;96147.34;5031628;28;20053;-77
2021/08/04 09:30:19;;;;;;;2.85;1.42;;;;;;;17.54;64.82;96141.31;5031409;28;20055;-74
2021/08/04 09:32:46;;;;;;;3.47;1.42;;;;;;;17.59;65.04;96133.56;5036067;28;20049;-74
2021/08/04 09:35:17;;;;;;;3.90;1.90;;;;;;;17.56;63.73;96139.81;5051122;28;20045;-75
2021/08/04 09:37:46;;;;;;;5.22;3.92;;;;;;;17.56;65.46;96131.53;5051581;28;20060;-74
2021/08/04 09:40:16;;;;;;;6.32;2.92;;;;;;;17.63;66.13;96128.09;5051218;28;20135;-74
2021/08/04 09:42:50;;;;;;;13.75;2.33;;;;;;;17.71;64.00;96140.84;5051462;28;20381;-75
2021/08/04 09:45:18;;;;;;;3.33;1.50;;;;;;;17.70;63.37;96131.78;5050918;28;20059;-75
2021/08/04 09:48:01;;;;;;;3.03;1.70;;;;;;;17.69;64.77;96137.63;5051431;28;20048;-74
2021/08/04 09:50:28;;;;;;;3.28;1.65;;;;;;;17.73;66.07;96122.78;5050984;28;20052;-75
2021/08/04 09:52:56;;;;;;;3.60;1.55;;;;;;;17.73;63.17;96127.50;5032928;28;20053;-75
2021/08/04 09:55:25;;;;;;;7.22;2.45;;;;;;;17.76;64.73;96121.28;5030941;28;20412;-75
2021/08/04 09:57:55;;;;;;;2.28;1.45;;;;;;;17.78;64.38;96118.94;5031428;28;20060;-75
2021/08/04 10:00:23;;;;;;;3.13;1.50;;;;;;;17.79;65.55;96120.53;5030823;28;20128;-75
2021/08/04 10:02:50;;;;;;;2.78;1.50;;;;;;;17.85;66.40;96118.25;5030787;28;20046;-75
2021/08/04 10:05:19;;;;;;;2.17;1.50;;;;;;;17.91;65.51;96111.28;5030830;28;20507;-75
2021/08/04 10:08:04;;;;;;;2.90;1.70;;;;;;;17.93;64.99;96108.94;5031125;28;20049;-76
2021/08/04 10:10:35;;;;;;;2.20;1.60;;;;;;;17.96;65.10;96108.19;5030982;28;20045;-77
2021/08/04 10:13:04;;;;;;;2.80;1.80;;;;;;;17.99;64.77;96108.22;5030358;28;20053;-74
2021/08/04 10:15:38;;;;;;;2.45;1.60;;;;;;;18.05;65.52;96107.91;5031132;28;20049;-75
2021/08/04 10:18:07;;;;;;;2.75;2.03;;;;;;;18.04;64.58;96104.38;5030731;28;20053;-75
2021/08/04 10:20:34;;;;;;;2.38;1.55;;;;;;;18.10;65.54;96113.09;5031139;28;20099;-75
2021/08/04 10:23:01;;;;;;;3.28;2.08;;;;;;;18.17;64.26;96104.94;5030933;28;20520;-76
2021/08/04 10:25:28;;;;;;;3.33;2.20;;;;;;;18.18;66.30;96112.03;5030938;28;20046;-75
2021/08/04 10:27:56;;;;;;;3.25;1.98;;;;;;;18.15;64.44;96110.03;5030778;28;20048;-76
2021/08/04 10:30:23;;;;;;;3.13;1.95;;;;;;;18.09;63.19;96106.00;5030642;28;20052;-75
2021/08/04 10:32:49;;;;;;;3.60;2.25;;;;;;;18.07;63.78;96106.38;5035679;28;20052;-75
2021/08/04 10:35:17;;;;;;;3.65;2.13;;;;;;;18.10;65.08;96111.13;5050267;28;20056;-75
2021/08/04 10:37:44;;;;;;;3.70;1.65;;;;;;;18.15;63.79;96115.53;5050854;28;20071;-75
2021/08/04 10:40:11;;;;;;;5.72;2.25;;;;;;;18.20;65.46;96115.22;5054094;28;20525;-77
2021/08/04 10:42:39;;;;;;;4.05;2.00;;;;;;;18.20;63.86;96116.00;5054778;28;20123;-77
2021/08/04 10:45:38;;;;;;;3.92;2.15;;;;;;;18.16;63.48;96112.41;5054363;28;20052;-76
2021/08/04 10:48:20;;;;;;;4.40;1.80;;;;;;;18.17;65.20;96111.25;5054297;28;20044;-74
2021/08/04 10:51:19;;;;;;;4.38;1.92;;;;;;;18.22;65.27;96110.94;5054068;28;20048;-74
2021/08/04 10:54:18;;;;;;;3.40;2.00;;;;;;;18.26;64.17;96106.22;5034465;28;20115;-74
2021/08/04 10:57:09;;;;;;;4.07;2.13;;;;;;;18.33;63.47;96102.78;5034340;28;20052;-75
2021/08/04 10:59:40;;;;;;;4.97;2.42;;;;;;;18.35;63.33;96097.69;5014895;28;20061;-76
2021/08/04 11:02:33;;;;;;;3.00;2.00;;;;;;;18.42;63.85;96097.78;5034174;28;20049;-74
2021/08/04 11:05:02;;;;;;;2.75;1.90;;;;;;;18.54;64.29;96104.25;5014636;28;20501;-75
2021/08/04 11:07:29;;;;;;;3.45;1.95;;;;;;;18.66;65.49;96103.97;5014757;28;20042;-74
2021/08/04 11:10:01;;;;;;;3.50;1.90;;;;;;;18.77;64.03;96100.19;5014594;28;20128;-74
2021/08/04 11:12:47;;;;;;;3.65;1.75;;;;;;;18.78;62.24;96093.50;5014267;28;20037;-76
2021/08/04 11:15:25;;;;;;;2.88;2.05;;;;;;;18.73;61.41;96098.56;5014090;28;20068;-75
2021/08/04 11:18:14;;;;;;;2.67;1.92;;;;;;;18.66;61.25;96107.53;5014502;28;20412;-75
2021/08/04 11:21:10;;;;;;;4.35;1.88;;;;;;;18.59;60.66;96095.63;5011988;28;20073;-75
2021/08/04 11:23:44;;;;;;;3.67;2.03;;;;;;;18.52;60.89;96088.84;5014248;28;20108;-75
2021/08/04 11:26:22;;;;;;;4.18;2.53;;;;;;;18.51;61.89;96091.97;5012744;28;20100;-75
2021/08/04 11:28:49;;;;;;;10.65;7.10;;;;;;;18.54;60.23;96082.97;5014165;28;20046;-75
2021/08/04 11:31:17;;;;;;;3.30;2.05;;;;;;;18.59;61.02;96084.59;5013786;28;20050;-75
2021/08/04 11:33:44;;;;;;;3.75;2.10;;;;;;;18.59;61.18;96076.34;5027497;28;20523;-75
2021/08/04 11:36:17;;;;;;;5.40;2.10;;;;;;;18.58;61.24;96077.47;5033563;28;20053;-76
2021/08/04 11:38:50;;;;;;;3.50;1.90;;;;;;;18.62;64.00;96079.09;5033969;28;20072;-75
2021/08/04 11:41:26;;;;;;;3.95;1.95;;;;;;;18.63;60.63;96074.38;5033413;28;20049;-75